Time;durP1;ratioP1;P1;durP2;ratioP2;P2;SDS_P1;SDS_P2;PMS_P1;PMS_P2;Temp;Humidity;BMP_temperature;BMP_pressure;BME280_temperature;BME280_humidity;BME280_pressure;Samples;Min_cycle;Max_cycle;Signal;HPM_P1;HPM_P2
2023/04/14 00:00:56;;;;;;;2.63;1.60;;;;;;;1.72;100.00;99450.72;5016979;28;20072;-78
2023/04/14 00:03:22;;;;;;;3.72;1.52;;;;;;;1.83;100.00;99448.84;4998927;28;20038;-78
2023/04/14 00:05:48;;;;;;;2.90;1.40;;;;;;;1.76;100.00;99432.69;4998985;28;20026;-78
2023/04/14 00:08:13;;;;;;;2.35;1.33;;;;;;;1.84;100.00;99455.81;4999520;28;20361;-77
2023/04/14 00:10:39;;;;;;;3.10;1.20;;;;;;;1.86;100.00;99457.31;4983015;28;20065;-79
2023/04/14 00:13:05;;;;;;;2.70;1.40;;;;;;;1.84;100.00;99456.63;4999412;28;20037;-76
2023/04/14 00:15:30;;;;;;;2.40;1.30;;;;;;;1.85;100.00;99458.28;5015292;28;20025;-80
2023/04/14 00:17:56;;;;;;;2.83;1.30;;;;;;;1.84;100.00;99450.50;5015231;28;20520;-76
2023/04/14 00:20:22;;;;;;;5.35;1.50;;;;;;;1.88;100.00;99452.69;4998281;28;20488;-77
2023/04/14 00:22:47;;;;;;;3.53;1.30;;;;;;;1.92;100.00;99458.53;5015060;28;20068;-78
2023/04/14 00:25:13;;;;;;;1.70;1.00;;;;;;;1.95;100.00;99450.25;5014856;28;20511;-78
2023/04/14 00:27:39;;;;;;;2.33;1.15;;;;;;;2.02;100.00;99453.16;4999075;28;20037;-77
2023/04/14 00:30:05;;;;;;;3.13;1.65;;;;;;;2.07;100.00;99450.88;5016065;28;20041;-77
2023/04/14 00:32:30;;;;;;;3.28;1.27;;;;;;;2.07;100.00;99434.97;4982806;28;20033;-77
2023/04/14 00:34:58;;;;;;;1.63;1.20;;;;;;;2.09;100.00;99435.63;4998927;28;20030;-79
2023/04/14 00:37:25;;;;;;;5.05;1.08;;;;;;;2.10;100.00;99437.31;4998155;28;20447;-77
2023/04/14 00:39:50;;;;;;;3.28;1.10;;;;;;;2.05;100.00;99432.47;4982859;28;20026;-77
2023/04/14 00:42:16;;;;;;;1.75;1.17;;;;;;;2.03;100.00;99428.28;5016128;28;20030;-77
2023/04/14 00:44:41;;;;;;;2.97;1.33;;;;;;;2.01;100.00;99432.91;4998721;28;20069;-77
2023/04/14 00:47:07;;;;;;;1.73;1.05;;;;;;;1.95;100.00;99426.41;5014644;28;20026;-77
2023/04/14 00:49:35;;;;;;;2.60;1.15;;;;;;;1.99;100.00;99422.47;4998595;28;20457;-77
2023/04/14 00:52:00;;;;;;;3.90;1.42;;;;;;;2.06;100.00;99427.97;5014770;28;20029;-76
2023/04/14 00:54:26;;;;;;;2.20;1.27;;;;;;;2.17;100.00;99430.38;4998243;28;20030;-77
2023/04/14 00:56:53;;;;;;;1.40;1.00;;;;;;;2.20;100.00;99430.91;4998604;28;20061;-77
2023/04/14 00:59:19;;;;;;;2.25;1.13;;;;;;;2.11;100.00;99409.78;4998683;28;20049;-77
2023/04/14 01:01:44;;;;;;;1.45;0.82;;;;;;;2.21;100.00;99426.44;5015666;28;20511;-76
2023/04/14 01:04:12;;;;;;;2.38;0.80;;;;;;;2.17;100.00;99419.78;4998460;28;20038;-77
2023/04/14 01:06:38;;;;;;;1.52;0.90;;;;;;;2.20;100.00;99425.63;4981960;28;20034;-77
2023/04/14 01:09:05;;;;;;;3.72;1.27;;;;;;;2.19;100.00;99423.09;4998247;28;20022;-77
2023/04/14 01:12:03;;;;;;;2.95;0.90;;;;;;;2.23;100.00;99424.47;5014124;28;20053;-77
2023/04/14 01:14:41;;;;;;;1.70;1.10;;;;;;;2.20;100.00;99409.72;5014140;28;20135;-76
2023/04/14 01:17:20;;;;;;;3.00;0.93;;;;;;;2.33;100.00;99425.22;4998165;28;20034;-78
2023/04/14 01:20:10;;;;;;;2.40;1.30;;;;;;;2.37;100.00;99433.69;5014598;28;20033;-77
2023/04/14 01:22:39;;;;;;;0.82;0.80;;;;;;;2.33;100.00;99424.34;5014981;28;20029;-77
2023/04/14 01:25:14;;;;;;;0.93;0.88;;;;;;;2.37;100.00;99429.19;4981670;28;20485;-78
2023/04/14 01:28:01;;;;;;;1.77;1.00;;;;;;;2.32;100.00;99433.31;4981814;28;20041;-77
2023/04/14 01:30:49;;;;;;;2.15;0.82;;;;;;;2.20;100.00;99430.91;5014253;28;20096;-79
2023/04/14 01:33:17;;;;;;;2.00;1.13;;;;;;;2.04;100.00;99414.91;5013908;28;20029;-77
2023/04/14 01:36:02;;;;;;;1.95;1.00;;;;;;;2.00;100.00;99407.41;4981980;28;20057;-77
2023/04/14 01:38:32;;;;;;;1.98;1.20;;;;;;;2.03;100.00;99420.34;4997929;28;20038;-77
2023/04/14 01:41:03;;;;;;;3.00;1.25;;;;;;;2.05;100.00;99426.31;4997472;28;20113;-76
2023/04/14 01:43:31;;;;;;;2.97;1.27;;;;;;;2.03;100.00;99417.69;4981729;28;20034;-77
2023/04/14 01:46:06;;;;;;;2.33;1.00;;;;;;;2.11;100.00;99423.88;4997785;28;20034;-77
2023/04/14 01:48:32;;;;;;;1.50;1.10;;;;;;;2.13;100.00;99427.22;4982744;28;20136;-77
2023/04/14 01:50:59;;;;;;;1.80;1.00;;;;;;;2.08;100.00;99407.44;4997419;28;20076;-79
2023/04/14 01:53:26;;;;;;;2.65;1.25;;;;;;;2.22;100.00;99427.28;4997710;28;20033;-81
2023/04/14 01:55:52;;;;;;;3.55;1.13;;;;;;;2.23;100.00;99423.66;5013593;28;20034;-76
2023/04/14 01:58:18;;;;;;;3.92;1.35;;;;;;;2.21;100.00;99423.78;4997645;28;20030;-78
2023/04/14 02:00:44;;;;;;;2.15;1.20;;;;;;;2.16;100.00;99418.94;4965263;28;20038;-78
2023/04/14 02:03:11;;;;;;;3.13;1.40;;;;;;;2.12;100.00;99417.59;4997369;28;20529;-79
2023/04/14 02:05:40;;;;;;;2.08;1.30;;;;;;;2.10;100.00;99414.25;4996874;28;20121;-78
2023/04/14 02:08:09;;;;;;;1.60;1.05;;;;;;;1.95;100.00;99400.72;4997351;28;20061;-79
2023/04/14 02:10:37;;;;;;;3.45;1.30;;;;;;;2.10;100.00;99413.44;4981152;28;20033;-78
2023/04/14 02:13:03;;;;;;;3.25;1.35;;;;;;;2.01;100.00;99401.91;4996737;28;20108;-78
2023/04/14 02:15:31;;;;;;;2.22;1.42;;;;;;;2.18;100.00;99410.84;4997106;28;20498;-78
2023/04/14 02:17:57;;;;;;;1.23;0.88;;;;;;;2.03;100.00;99376.09;4980850;28;20045;-78
2023/04/14 02:20:24;;;;;;;2.10;1.02;;;;;;;2.18;100.00;99402.88;4996793;28;20040;-76
2023/04/14 02:22:50;;;;;;;3.70;1.30;;;;;;;2.11;100.00;99393.88;4981082;28;20029;-77
2023/04/14 02:25:18;;;;;;;2.15;1.15;;;;;;;2.11;100.00;99407.13;4997022;28;20403;-77
2023/04/14 02:27:53;;;;;;;1.10;0.80;;;;;;;2.07;100.00;99393.38;4997116;28;20477;-77
2023/04/14 02:30:31;;;;;;;2.03;0.95;;;;;;;2.04;100.00;99393.69;4980785;28;20040;-77
2023/04/14 02:33:11;;;;;;;3.20;1.40;;;;;;;2.10;100.00;99405.50;4980624;28;20030;-77
2023/04/14 02:35:42;;;;;;;1.95;0.82;;;;;;;2.00;100.00;99392.31;5013097;28;20037;-78
2023/04/14 02:38:34;;;;;;;1.85;1.08;;;;;;;2.11;100.00;99401.84;5013256;28;20041;-78
2023/04/14 02:41:06;;;;;;;1.88;1.15;;;;;;;2.11;100.00;99407.13;4989345;28;20510;-77
2023/04/14 02:43:38;;;;;;;4.15;1.23;;;;;;;2.12;100.00;99406.16;5012782;28;20042;-77
2023/04/14 02:46:04;;;;;;;1.45;1.00;;;;;;;2.10;100.00;99405.50;4980885;28;20467;-77
2023/04/14 02:48:33;;;;;;;2.92;1.40;;;;;;;2.03;100.00;99399.94;4996253;28;20108;-77
2023/04/14 02:51:00;;;;;;;1.95;1.02;;;;;;;2.02;100.00;99400.94;4996999;28;20056;-77
2023/04/14 02:53:29;;;;;;;1.13;0.93;;;;;;;1.95;100.00;99402.53;5014017;28;20034;-77
2023/04/14 02:55:57;;;;;;;1.70;1.10;;;;;;;1.88;100.00;99389.09;5012995;28;20030;-76
2023/04/14 02:58:48;;;;;;;1.08;0.85;;;;;;;2.00;100.00;99402.91;5012830;28;20068;-77
2023/04/14 03:01:14;;;;;;;2.58;0.90;;;;;;;2.01;100.00;99398.44;5012933;28;20033;-77
2023/04/14 03:03:40;;;;;;;3.25;1.10;;;;;;;2.01;100.00;99403.75;4980333;28;20046;-76
2023/04/14 03:06:07;;;;;;;5.15;1.58;;;;;;;1.98;100.00;99386.31;5014005;28;20037;-77
2023/04/14 03:08:33;;;;;;;2.00;1.35;;;;;;;2.08;100.00;99402.97;4996567;28;20042;-77
2023/04/14 03:10:59;;;;;;;2.08;1.10;;;;;;;2.11;100.00;99404.50;5013584;28;20113;-76
2023/04/14 03:13:27;;;;;;;2.83;1.40;;;;;;;2.05;100.00;99394.50;4964118;28;20132;-77
2023/04/14 03:15:53;;;;;;;2.58;0.90;;;;;;;2.07;100.00;99397.84;4980215;28;20038;-77
2023/04/14 03:18:20;;;;;;;2.05;1.00;;;;;;;2.04;100.00;99401.63;5012677;28;20033;-77
2023/04/14 03:20:46;;;;;;;2.95;1.13;;;;;;;2.10;100.00;99402.84;5012247;28;20034;-78
2023/04/14 03:23:12;;;;;;;3.03;1.27;;;;;;;2.16;100.00;99397.72;4980324;28;20025;-77
2023/04/14 03:25:39;;;;;;;2.65;1.00;;;;;;;2.27;100.00;99409.91;4996408;28;20026;-77
2023/04/14 03:28:11;;;;;;;4.00;1.77;;;;;;;2.27;100.00;99409.06;5012506;28;20073;-77
2023/04/14 03:30:42;;;;;;;2.47;1.00;;;;;;;2.28;100.00;99402.81;4980330;28;20030;-77
2023/04/14 03:33:10;;;;;;;1.50;1.00;;;;;;;2.28;100.00;99408.09;4964251;28;20042;-76
2023/04/14 03:35:37;;;;;;;0.75;0.73;;;;;;;2.14;100.00;99369.69;5012592;28;20045;-77
2023/04/14 03:38:07;;;;;;;1.80;0.85;;;;;;;2.32;100.00;99412.91;4996264;28;20038;-77
2023/04/14 03:40:40;;;;;;;2.72;1.00;;;;;;;2.18;100.00;99397.59;4981319;28;20108;-77
2023/04/14 03:43:08;;;;;;;2.45;1.00;;;;;;;2.20;100.00;99393.78;4980347;28;20057;-77
2023/04/14 03:45:37;;;;;;;1.92;1.02;;;;;;;2.10;100.00;99390.41;4996571;28;20192;-77
2023/04/14 03:48:04;;;;;;;1.80;1.00;;;;;;;2.04;100.00;99393.69;4980418;28;20136;-77
2023/04/14 03:50:35;;;;;;;2.95;1.00;;;;;;;2.04;100.00;99409.59;4995840;28;20026;-78
2023/04/14 03:53:03;;;;;;;1.08;0.90;;;;;;;1.93;100.00;99405.38;5011940;28;20022;-77
2023/04/14 03:55:30;;;;;;;3.75;1.20;;;;;;;1.88;100.00;99407.66;4997572;28;20035;-78
2023/04/14 03:57:58;;;;;;;1.48;0.85;;;;;;;1.82;100.00;99410.06;5016022;28;20100;-77
2023/04/14 04:00:50;;;;;;;1.55;0.70;;;;;;;1.78;100.00;99412.19;4999687;28;20041;-79
2023/04/14 04:03:16;;;;;;;3.33;1.10;;;;;;;1.67;100.00;99410.59;5015596;28;20033;-77
2023/04/14 04:05:43;;;;;;;4.57;1.30;;;;;;;1.62;100.00;99410.22;4999569;28;20037;-77
2023/04/14 04:08:09;;;;;;;3.00;0.88;;;;;;;1.51;100.00;99406.00;4983582;28;20041;-77
2023/04/14 04:10:35;;;;;;;1.40;1.00;;;;;;;1.44;100.00;99412.88;4999595;28;20026;-76
2023/04/14 04:13:02;;;;;;;1.30;1.05;;;;;;;1.40;100.00;99410.66;5015694;28;20036;-77
2023/04/14 04:15:28;;;;;;;2.10;0.70;;;;;;;1.20;100.00;99384.31;5015733;28;20033;-77
2023/04/14 04:17:55;;;;;;;1.23;0.82;;;;;;;1.39;100.00;99412.47;4983407;28;20029;-77
2023/04/14 04:20:21;;;;;;;1.80;0.80;;;;;;;1.38;100.00;99412.66;4983237;28;20037;-77
2023/04/14 04:22:50;;;;;;;0.82;0.70;;;;;;;1.31;100.00;99410.56;4983342;28;20092;-77
2023/04/14 04:25:16;;;;;;;1.30;0.75;;;;;;;1.21;100.00;99411.63;4999210;28;20395;-77
2023/04/14 04:27:41;;;;;;;1.25;1.00;;;;;;;1.12;100.00;99408.06;4998911;28;20113;-77
2023/04/14 04:30:08;;;;;;;1.80;0.98;;;;;;;1.13;100.00;99408.88;4983228;28;20104;-76
2023/04/14 04:32:36;;;;;;;1.73;0.75;;;;;;;1.07;100.00;99408.50;4982975;28;20081;-77
2023/04/14 04:35:06;;;;;;;1.75;0.80;;;;;;;1.03;100.00;99412.44;4998658;28;20480;-77
2023/04/14 04:37:32;;;;;;;3.05;0.90;;;;;;;0.97;100.00;99413.00;4999383;28;20480;-76
2023/04/14 04:39:58;;;;;;;4.75;1.00;;;;;;;0.87;100.00;99413.06;5015280;28;20037;-76
2023/04/14 04:42:23;;;;;;;1.52;1.00;;;;;;;0.77;100.00;99414.91;5015238;28;20034;-76
2023/04/14 04:44:50;;;;;;;0.70;0.70;;;;;;;0.77;100.00;99417.56;4982812;28;20514;-77
2023/04/14 04:47:15;;;;;;;1.13;0.73;;;;;;;0.67;100.00;99414.13;4982823;28;20133;-77
2023/04/14 04:49:41;;;;;;;1.02;0.70;;;;;;;0.43;100.00;99394.31;5016382;28;20036;-76
2023/04/14 04:52:06;;;;;;;1.33;0.80;;;;;;;0.38;100.00;99414.22;4998393;28;20531;-78
2023/04/14 04:54:32;;;;;;;1.45;0.85;;;;;;;0.22;100.00;99430.69;4982251;28;20028;-77
2023/04/14 04:56:58;;;;;;;1.50;0.85;;;;;;;0.01;100.00;99422.91;5014853;28;20036;-77
2023/04/14 04:59:24;;;;;;;0.98;0.80;;;;;;;-0.05;100.00;99429.59;4998520;28;20034;-77
2023/04/14 05:01:51;;;;;;;2.58;0.82;;;;;;;-0.08;100.00;99435.16;4998470;28;20388;-77
2023/04/14 05:04:16;;;;;;;1.52;1.00;;;;;;;-0.19;100.00;99432.66;5014593;28;20029;-77
2023/04/14 05:06:44;;;;;;;1.17;0.93;;;;;;;-0.56;100.00;99404.28;5013808;28;20030;-78
2023/04/14 05:09:09;;;;;;;1.73;0.88;;;;;;;-0.56;100.00;99425.41;5014195;28;20361;-76
2023/04/14 05:11:35;;;;;;;0.88;0.85;;;;;;;-0.53;100.00;99442.78;5016064;28;20034;-77
2023/04/14 05:14:01;;;;;;;2.40;0.93;;;;;;;-0.52;100.00;99447.09;5014130;28;20065;-77
2023/04/14 05:16:27;;;;;;;1.65;0.70;;;;;;;-0.54;100.00;99441.94;4981839;28;20038;-76
2023/04/14 05:18:54;;;;;;;1.27;0.90;;;;;;;-0.55;100.00;99453.50;4981842;28;20034;-77
2023/04/14 05:21:19;;;;;;;1.65;0.90;;;;;;;-0.52;100.00;99463.78;4982016;28;20499;-76
2023/04/14 05:23:45;;;;;;;2.38;0.80;;;;;;;-0.51;100.00;99459.31;4997489;28;20037;-76
2023/04/14 05:26:12;;;;;;;2.05;0.68;;;;;;;-0.56;100.00;99475.56;5013076;28;20113;-76
2023/04/14 05:28:38;;;;;;;1.77;0.80;;;;;;;-0.60;100.00;99470.72;4981830;28;20029;-76
2023/04/14 05:31:04;;;;;;;0.98;0.70;;;;;;;-0.56;100.00;99482.66;4997631;28;20050;-76
2023/04/14 05:33:30;;;;;;;1.38;0.80;;;;;;;-0.56;100.00;99482.66;5013881;28;20076;-77
2023/04/14 05:35:55;;;;;;;0.77;0.77;;;;;;;-0.60;100.00;99484.75;4997949;28;20060;-76
2023/04/14 05:38:21;;;;;;;2.60;0.90;;;;;;;-0.75;100.00;99488.72;4997600;28;20092;-76
2023/04/14 05:40:47;;;;;;;0.60;0.60;;;;;;;-0.90;100.00;99473.28;5013986;28;20030;-76
2023/04/14 05:43:16;;;;;;;2.72;0.70;;;;;;;-0.76;100.00;99487.06;4981742;28;20034;-77
2023/04/14 05:45:41;;;;;;;1.77;1.00;;;;;;;-0.78;100.00;99486.38;4981652;28;20495;-77
2023/04/14 05:48:07;;;;;;;3.67;1.13;;;;;;;-0.79;100.00;99500.53;5013619;28;20033;-76
2023/04/14 05:50:33;;;;;;;2.03;0.98;;;;;;;-0.79;100.00;99508.47;5013604;28;20037;-76
2023/04/14 05:52:59;;;;;;;0.82;0.75;;;;;;;-0.79;100.00;99509.28;4997637;28;20109;-76
2023/04/14 05:55:26;;;;;;;0.95;0.88;;;;;;;-0.72;100.00;99515.69;4997627;28;20128;-76
2023/04/14 05:57:52;;;;;;;2.25;0.80;;;;;;;-0.72;100.00;99513.03;4997811;28;20108;-76
2023/04/14 06:00:18;;;;;;;1.13;0.80;;;;;;;-0.67;100.00;99523.22;5013505;28;20026;-76
2023/04/14 06:02:44;;;;;;;1.48;0.75;;;;;;;-0.66;100.00;99503.78;4965314;28;20042;-77
2023/04/14 06:05:11;;;;;;;1.92;0.88;;;;;;;-0.42;100.00;99526.31;5013664;28;20380;-76
2023/04/14 06:07:40;;;;;;;1.77;1.05;;;;;;;-0.32;100.00;99527.19;5013576;28;20049;-77
2023/04/14 06:10:07;;;;;;;2.70;1.35;;;;;;;-0.16;100.00;99529.28;5013561;28;20548;-77
2023/04/14 06:12:32;;;;;;;4.45;2.15;;;;;;;0.09;100.00;99541.16;4997190;28;20038;-76
2023/04/14 06:14:58;;;;;;;4.82;1.98;;;;;;;0.09;100.00;99518.19;5014597;28;20381;-77
2023/04/14 06:17:24;;;;;;;6.32;2.35;;;;;;;0.26;100.00;99548.38;5013516;28;20030;-77
2023/04/14 06:19:52;;;;;;;5.22;2.13;;;;;;;0.44;100.00;99551.97;4979985;28;20053;-77
2023/04/14 06:22:20;;;;;;;4.40;2.40;;;;;;;0.68;100.00;99547.22;4997456;28;20036;-77
2023/04/14 06:24:45;;;;;;;3.50;1.98;;;;;;;0.88;100.00;99572.69;4981309;28;20510;-77
2023/04/14 06:27:11;;;;;;;2.08;1.30;;;;;;;0.91;100.00;99579.50;4996969;28;20038;-76
2023/04/14 06:29:37;;;;;;;4.65;1.95;;;;;;;1.06;100.00;99589.50;5013009;28;20036;-76
2023/04/14 06:32:02;;;;;;;4.53;2.10;;;;;;;1.49;100.00;99574.00;5013236;28;20041;-76
2023/04/14 06:34:28;;;;;;;3.83;1.92;;;;;;;2.11;100.00;99590.94;5013042;28;20041;-76
2023/04/14 06:36:55;;;;;;;6.65;2.30;;;;;;;2.94;100.00;99605.75;5013104;28;20528;-77
2023/04/14 06:39:21;;;;;;;5.15;2.13;;;;;;;3.01;100.00;99612.94;5013057;28;20026;-76
2023/04/14 06:41:47;;;;;;;5.75;2.30;;;;;;;2.89;100.00;99613.38;4996450;28;20537;-77
2023/04/14 06:44:13;;;;;;;5.85;2.25;;;;;;;3.06;100.00;99613.31;4996612;28;20029;-77
2023/04/14 06:46:38;;;;;;;8.95;3.10;;;;;;;2.93;100.00;99623.50;4996688;28;20175;-76
2023/04/14 06:49:04;;;;;;;8.52;3.05;;;;;;;2.97;100.00;99627.53;4996496;28;20064;-76
2023/04/14 06:51:31;;;;;;;6.88;3.38;;;;;;;4.02;100.00;99630.91;4980427;28;20042;-77
2023/04/14 06:53:57;;;;;;;12.90;3.75;;;;;;;5.05;100.00;99634.06;4980233;28;20113;-77
2023/04/14 06:56:22;;;;;;;8.82;2.83;;;;;;;5.76;100.00;99628.06;5012921;28;20554;-77
2023/04/14 06:58:48;;;;;;;7.18;2.92;;;;;;;6.21;100.00;99631.88;5012879;28;20427;-76
2023/04/14 07:01:32;;;;;;;7.30;3.15;;;;;;;6.01;100.00;99644.84;5014055;28;20176;-77
2023/04/14 07:03:57;;;;;;;6.28;2.78;;;;;;;6.14;100.00;99643.28;5012816;28;20026;-77
2023/04/14 07:06:23;;;;;;;7.85;3.00;;;;;;;6.95;100.00;99657.09;4996250;28;20049;-77
2023/04/14 07:08:49;;;;;;;4.97;2.13;;;;;;;8.19;100.00;99668.19;5013586;28;20053;-77
2023/04/14 07:11:15;;;;;;;1.88;1.20;;;;;;;9.48;97.32;99660.19;4980116;28;20113;-77
2023/04/14 07:13:40;;;;;;;1.85;1.10;;;;;;;10.37;91.91;99664.81;5012267;28;20026;-77
2023/04/14 07:16:09;;;;;;;1.25;0.90;;;;;;;10.93;86.38;99661.88;4996319;28;20037;-76
2023/04/14 07:18:35;;;;;;;2.15;1.02;;;;;;;11.27;83.67;99668.09;4980261;28;20115;-77
2023/04/14 07:21:01;;;;;;;2.75;1.23;;;;;;;11.66;82.95;99669.09;5012628;28;20030;-77
2023/04/14 07:23:27;;;;;;;2.95;1.10;;;;;;;12.09;81.07;99656.00;4996381;28;20461;-77
2023/04/14 07:25:54;;;;;;;4.82;1.30;;;;;;;12.82;80.28;99672.84;4996268;28;20379;-77
2023/04/14 07:28:21;;;;;;;2.65;1.20;;;;;;;13.46;77.25;99682.56;4980291;28;20065;-77
2023/04/14 07:30:48;;;;;;;3.45;1.35;;;;;;;14.15;74.30;99680.63;4966028;28;20038;-77
2023/04/14 07:33:18;;;;;;;4.78;1.10;;;;;;;14.79;72.55;99680.28;4984177;28;20038;-76
2023/04/14 07:35:48;;;;;;;3.83;1.52;;;;;;;15.46;68.24;99680.09;4984542;28;20029;-77
2023/04/14 07:38:14;;;;;;;7.00;2.28;;;;;;;15.97;66.57;99673.97;5000044;28;20105;-80
2023/04/14 07:40:40;;;;;;;4.15;2.78;;;;;;;16.63;65.54;99688.09;5016331;28;20551;-77
2023/04/14 07:43:12;;;;;;;4.63;2.20;;;;;;;17.21;61.73;99694.34;5016131;28;20095;-78
2023/04/14 07:45:38;;;;;;;5.60;2.25;;;;;;;17.69;60.72;99702.97;4983459;28;20468;-77
2023/04/14 07:48:04;;;;;;;3.55;1.80;;;;;;;18.04;58.61;99715.50;5015974;28;20049;-78
2023/04/14 07:50:30;;;;;;;3.42;1.80;;;;;;;18.43;56.53;99716.28;5016939;28;20491;-78
2023/04/14 07:52:55;;;;;;;4.18;1.77;;;;;;;18.78;53.54;99726.00;4999871;28;20037;-77
2023/04/14 07:55:21;;;;;;;3.00;1.27;;;;;;;18.88;52.23;99729.66;5015655;28;20037;-78
2023/04/14 07:57:47;;;;;;;3.28;1.40;;;;;;;18.88;51.20;99724.19;5016102;28;20041;-78
2023/04/14 08:00:13;;;;;;;2.42;1.20;;;;;;;19.09;50.27;99732.59;5015844;28;20022;-78
2023/04/14 08:02:39;;;;;;;3.08;1.33;;;;;;;19.19;48.39;99732.69;4999619;28;20048;-76
2023/04/14 08:05:05;;;;;;;4.15;1.42;;;;;;;19.50;47.89;99743.88;5017077;28;20029;-75
2023/04/14 08:07:31;;;;;;;1.58;1.05;;;;;;;19.68;47.31;99742.69;4999497;28;20034;-76
2023/04/14 08:09:58;;;;;;;1.55;1.00;;;;;;;19.61;46.11;99728.41;4999227;28;20037;-76
2023/04/14 08:12:24;;;;;;;2.17;0.98;;;;;;;19.63;45.36;99735.25;4983510;28;20045;-77
2023/04/14 08:14:53;;;;;;;3.67;1.02;;;;;;;19.71;46.74;99740.28;5015574;28;20033;-77
2023/04/14 08:17:19;;;;;;;1.17;0.90;;;;;;;20.29;43.98;99753.19;5016537;28;20026;-77
2023/04/14 08:19:45;;;;;;;4.00;1.27;;;;;;;20.66;43.06;99746.84;5016436;28;20116;-78
2023/04/14 08:22:11;;;;;;;5.55;1.88;;;;;;;20.70;42.24;99747.97;4999217;28;20453;-77
2023/04/14 08:24:37;;;;;;;13.20;8.88;;;;;;;20.44;42.06;99742.34;5015519;28;20117;-78
2023/04/14 08:27:03;;;;;;;14.00;10.52;;;;;;;20.56;42.15;99748.47;5016580;28;20092;-76
2023/04/14 08:29:28;;;;;;;5.95;3.97;;;;;;;20.69;41.88;99752.59;5015367;28;20072;-78
2023/04/14 08:31:54;;;;;;;7.60;4.55;;;;;;;21.57;41.22;99759.13;5015327;28;20034;-77
2023/04/14 08:34:20;;;;;;;7.97;2.78;;;;;;;21.95;39.68;99754.97;4998986;28;20144;-77
2023/04/14 08:36:46;;;;;;;8.32;2.78;;;;;;;22.19;37.58;99760.72;5014928;28;20126;-77
2023/04/14 08:39:12;;;;;;;4.45;2.08;;;;;;;22.01;37.60;99764.00;4998822;28;20373;-76
2023/04/14 08:41:38;;;;;;;5.60;1.55;;;;;;;22.14;35.31;99768.91;5014396;28;20038;-77
2023/04/14 08:44:05;;;;;;;2.15;1.20;;;;;;;21.40;32.91;99782.06;5016140;28;20076;-76
2023/04/14 08:46:30;;;;;;;2.60;1.08;;;;;;;21.10;34.26;99787.44;4982461;28;20374;-78
2023/04/14 08:49:04;;;;;;;4.82;1.52;;;;;;;21.23;31.63;99779.53;5014819;28;20040;-78
2023/04/14 08:51:34;;;;;;;4.80;1.20;;;;;;;21.04;31.88;99800.28;4982795;28;20073;-76
2023/04/14 08:54:02;;;;;;;3.67;1.50;;;;;;;21.07;30.25;99800.56;5014893;28;20034;-76
2023/04/14 08:56:34;;;;;;;4.97;1.27;;;;;;;21.17;30.87;99812.59;4982296;28;20480;-77
2023/04/14 08:59:00;;;;;;;1.83;1.23;;;;;;;21.41;29.02;99815.72;4998192;28;20030;-77
2023/04/14 09:01:32;;;;;;;2.03;1.23;;;;;;;21.66;29.71;99812.19;4980139;28;20431;-78
2023/04/14 09:03:58;;;;;;;5.95;1.27;;;;;;;21.57;29.69;99811.91;5012325;28;20040;-79
2023/04/14 09:06:24;;;;;;;1.17;1.08;;;;;;;21.59;28.77;99797.94;5012086;28;20045;-77
2023/04/14 09:08:50;;;;;;;3.25;1.20;;;;;;;21.83;29.57;99826.44;4996191;28;20034;-77
2023/04/14 09:11:18;;;;;;;3.88;1.00;;;;;;;21.36;28.67;99823.88;5013432;28;20048;-77
2023/04/14 09:13:44;;;;;;;2.67;1.20;;;;;;;21.64;30.22;99831.59;5013678;28;20095;-76
2023/04/14 09:16:11;;;;;;;1.65;1.38;;;;;;;22.36;28.17;99821.50;5014929;28;20426;-79
2023/04/14 09:18:37;;;;;;;5.93;0.98;;;;;;;20.54;30.12;99827.09;4997865;28;20131;-77
2023/04/14 09:21:03;;;;;;;3.15;1.08;;;;;;;17.03;34.95;99831.16;4998415;28;20034;-78
2023/04/14 09:23:29;;;;;;;4.18;1.20;;;;;;;18.98;35.30;99834.38;5014535;28;20083;-77
2023/04/14 09:25:54;;;;;;;4.85;1.30;;;;;;;20.74;31.41;99839.22;4998144;28;20026;-77
2023/04/14 09:28:22;;;;;;;2.60;1.42;;;;;;;21.40;29.32;99846.88;5015547;28;20026;-79
2023/04/14 09:30:48;;;;;;;1.30;1.13;;;;;;;22.15;30.40;99844.50;4982137;28;20472;-76
2023/04/14 09:33:21;;;;;;;2.30;1.10;;;;;;;22.88;28.85;99832.28;5014165;28;20028;-77
2023/04/14 09:35:47;;;;;;;;;;;;;;;23.09;27.81;99847.59;5014701;28;20050;-77
2023/04/14 09:38:15;;;;;;;1.90;1.10;;;;;;;23.26;27.76;99844.50;5014035;28;19916;-77
2023/04/14 09:40:43;;;;;;;2.53;1.08;;;;;;;23.07;27.43;99849.78;4965817;28;20100;-76
2023/04/14 09:43:22;;;;;;;2.40;1.10;;;;;;;23.19;27.87;99858.50;4997763;28;20419;-75
2023/04/14 09:45:48;;;;;;;3.20;1.70;;;;;;;22.90;28.02;99865.75;4997369;28;20381;-76
2023/04/14 09:48:14;;;;;;;2.67;1.20;;;;;;;23.43;26.49;99871.56;4997535;28;20038;-77
2023/04/14 09:50:59;;;;;;;4.85;1.20;;;;;;;23.15;27.88;99878.53;5013540;28;20037;-77
2023/04/14 09:53:30;;;;;;;4.55;1.63;;;;;;;21.79;29.05;99877.31;5013236;28;20026;-77
2023/04/14 09:55:58;;;;;;;2.28;1.40;;;;;;;22.18;27.81;99863.09;4981303;28;20057;-76
2023/04/14 09:58:40;;;;;;;2.47;1.42;;;;;;;19.98;31.67;99886.72;4997436;28;20049;-76
2023/04/14 10:01:12;;;;;;;1.88;0.85;;;;;;;20.45;30.84;99890.63;4981342;28;20044;-77
2023/04/14 10:03:45;;;;;;;1.40;0.77;;;;;;;18.08;35.19;99896.19;5013252;28;20040;-76
2023/04/14 10:06:16;;;;;;;3.35;1.73;;;;;;;17.43;39.00;99897.41;4997420;28;20038;-76
2023/04/14 10:08:45;;;;;;;2.53;1.00;;;;;;;20.09;32.54;99899.34;4997289;28;20072;-76
2023/04/14 10:11:15;;;;;;;2.85;1.30;;;;;;;22.43;29.49;99913.50;5013243;28;20603;-77
2023/04/14 10:13:41;;;;;;;5.07;0.93;;;;;;;21.00;31.14;99911.19;5014531;28;20445;-77
2023/04/14 10:16:07;;;;;;;1.70;1.10;;;;;;;20.31;31.96;99912.09;5013322;28;20113;-77
2023/04/14 10:18:34;;;;;;;1.63;0.90;;;;;;;19.18;33.00;99913.63;5013408;28;20105;-77
2023/04/14 10:21:00;;;;;;;2.80;0.80;;;;;;;17.72;35.49;99928.13;4997088;28;20026;-77
2023/04/14 10:23:26;;;;;;;1.77;0.93;;;;;;;16.72;37.98;99919.25;4980873;28;20038;-77
2023/04/14 10:25:53;;;;;;;1.80;0.75;;;;;;;16.14;39.32;99930.88;4996870;28;20073;-76
2023/04/14 10:28:20;;;;;;;3.45;1.40;;;;;;;15.61;41.18;99922.44;4980852;28;20034;-78
2023/04/14 10:30:48;;;;;;;4.10;1.00;;;;;;;15.19;42.09;99932.34;5012824;28;20073;-76
2023/04/14 10:33:14;;;;;;;0.80;0.63;;;;;;;14.78;42.99;99928.41;4996957;28;20038;-76
2023/04/14 10:35:41;;;;;;;4.88;1.70;;;;;;;15.12;42.92;99928.88;4994928;28;20105;-78
2023/04/14 10:38:10;;;;;;;2.60;1.27;;;;;;;19.87;36.93;99953.16;4994719;28;20396;-77
2023/04/14 10:40:46;;;;;;;3.28;1.05;;;;;;;22.70;30.66;99940.59;5011237;28;20065;-79
2023/04/14 10:43:12;;;;;;;4.72;1.08;;;;;;;22.62;30.54;99952.94;5012651;28;20122;-78
2023/04/14 10:45:56;;;;;;;1.00;1.00;;;;;;;23.56;29.42;99957.94;5013150;28;20120;-78
2023/04/14 10:48:27;;;;;;;2.65;1.52;;;;;;;24.60;25.56;99959.75;4996310;28;20061;-78
2023/04/14 10:51:01;;;;;;;1.88;1.00;;;;;;;21.36;29.92;99966.88;4980637;28;20468;-79
2023/04/14 10:53:35;;;;;;;4.10;0.90;;;;;;;18.67;34.14;99970.91;5012925;28;20038;-78
2023/04/14 10:56:02;;;;;;;1.65;0.80;;;;;;;16.71;37.44;99952.88;5013111;28;20460;-79
2023/04/14 10:58:28;;;;;;;2.65;1.08;;;;;;;18.97;36.37;99968.91;4996744;28;20128;-78
2023/04/14 11:00:56;;;;;;;2.53;1.30;;;;;;;21.90;31.28;99965.72;5012680;28;20455;-78
2023/04/14 11:03:21;;;;;;;3.58;2.78;;;;;;;23.29;29.06;99969.25;5012752;28;20045;-78
2023/04/14 11:05:49;;;;;;;2.97;0.98;;;;;;;24.16;26.86;99966.09;4995946;28;20034;-79
2023/04/14 11:08:33;;;;;;;2.20;1.27;;;;;;;24.52;27.13;99953.75;4996364;28;20464;-77
2023/04/14 11:11:00;;;;;;;2.08;1.20;;;;;;;25.20;25.41;99980.34;5012802;28;20038;-78
2023/04/14 11:13:28;;;;;;;2.20;1.30;;;;;;;25.75;24.78;99988.22;5012626;28;20606;-77
2023/04/14 11:16:13;;;;;;;1.45;1.10;;;;;;;25.50;24.06;99977.53;4996587;28;20034;-78
2023/04/14 11:18:44;;;;;;;2.00;1.13;;;;;;;26.01;23.48;99990.63;5012398;28;20042;-78
2023/04/14 11:21:25;;;;;;;4.97;1.20;;;;;;;20.74;30.38;99986.72;4997187;28;20427;-77
2023/04/14 11:23:51;;;;;;;4.07;1.83;;;;;;;22.56;28.88;99993.22;4996287;28;20038;-78
2023/04/14 11:26:17;;;;;;;3.47;1.40;;;;;;;24.19;26.90;99991.09;4996540;28;20503;-78
2023/04/14 11:28:44;;;;;;;4.00;1.10;;;;;;;24.73;25.39;99986.56;4995983;28;20062;-79
2023/04/14 11:31:11;;;;;;;1.75;1.30;;;;;;;25.84;23.58;99988.41;5012528;28;20488;-76
2023/04/14 11:33:39;;;;;;;2.35;0.68;;;;;;;25.48;23.91;99997.06;5011831;28;20037;-78
2023/04/14 11:36:06;;;;;;;1.90;0.80;;;;;;;21.25;29.87;99998.81;5012184;28;20030;-76